sensor_id;sensor_type;location;lat;lon;timestamp;pressure;altitude;pressure_sealevel;temperature;humidity
3590;BME280;1809;48.470;9.226;2022-12-07T00:01:29;155600.50;;;3.62;100.00
3590;BME280;1809;48.470;9.226;2022-12-07T00:03:57;155597.94;;;3.61;100.00
3590;BME280;1809;48.470;9.226;2022-12-07T00:06:29;155591.41;;;3.58;100.00
3590;BME280;1809;48.470;9.226;2022-12-07T00:08:54;155600.50;;;3.62;100.00
3590;BME280;1809;48.470;9.226;2022-12-07T00:11:21;155610.91;;;3.66;100.00
3590;BME280;1809;48.470;9.226;2022-12-07T00:13:51;155608.31;;;3.65;100.00
3590;BME280;1809;48.470;9.226;2022-12-07T00:16:19;155587.53;;;3.57;100.00
3590;BME280;1809;48.470;9.226;2022-12-07T00:18:45;155590.16;;;3.58;100.00
3590;BME280;1809;48.470;9.226;2022-12-07T00:21:13;155584.91;;;3.56;100.00
3590;BME280;1809;48.470;9.226;2022-12-07T00:23:40;155592.72;;;3.59;100.00
3590;BME280;1809;48.470;9.226;2022-12-07T00:26:11;155584.91;;;3.56;100.00
3590;BME280;1809;48.470;9.226;2022-12-07T00:28:37;155588.84;;;3.57;100.00
3590;BME280;1809;48.470;9.226;2022-12-07T00:31:08;155590.16;;;3.58;100.00
3590;BME280;1809;48.470;9.226;2022-12-07T00:33:34;155590.16;;;3.58;100.00
3590;BME280;1809;48.470;9.226;2022-12-07T00:36:03;155581.03;;;3.54;100.00
3590;BME280;1809;48.470;9.226;2022-12-07T00:38:31;155590.16;;;3.58;100.00
3590;BME280;1809;48.470;9.226;2022-12-07T00:41:02;155584.91;;;3.56;100.00
3590;BME280;1809;48.470;9.226;2022-12-07T00:43:28;155587.53;;;3.57;100.00
3590;BME280;1809;48.470;9.226;2022-12-07T00:45:53;155582.34;;;3.55;100.00
3590;BME280;1809;48.470;9.226;2022-12-07T00:48:20;155612.22;;;3.66;100.00
3590;BME280;1809;48.470;9.226;2022-12-07T00:50:45;155597.94;;;3.61;100.00
3590;BME280;1809;48.470;9.226;2022-12-07T00:53:11;155595.34;;;3.60;100.00
3590;BME280;1809;48.470;9.226;2022-12-07T00:55:37;155592.72;;;3.59;100.00
3590;BME280;1809;48.470;9.226;2022-12-07T00:58:03;155669.44;;;3.89;100.00
3590;BME280;1809;48.470;9.226;2022-12-07T01:00:29;155660.31;;;3.85;100.00
3590;BME280;1809;48.470;9.226;2022-12-07T01:02:54;155701.91;;;4.01;100.00
3590;BME280;1809;48.470;9.226;2022-12-07T01:05:19;155704.50;;;4.02;100.00
3590;BME280;1809;48.470;9.226;2022-12-07T01:07:45;155699.31;;;4.00;100.00
3590;BME280;1809;48.470;9.226;2022-12-07T01:10:12;155668.13;;;3.88;100.00
3590;BME280;1809;48.470;9.226;2022-12-07T01:12:37;155678.53;;;3.92;100.00
3590;BME280;1809;48.470;9.226;2022-12-07T01:15:02;155660.31;;;3.85;100.00
3590;BME280;1809;48.470;9.226;2022-12-07T01:17:28;155651.22;;;3.82;100.00
3590;BME280;1809;48.470;9.226;2022-12-07T01:19:53;155662.88;;;3.86;100.00
3590;BME280;1809;48.470;9.226;2022-12-07T01:22:18;155665.50;;;3.87;100.00
3590;BME280;1809;48.470;9.226;2022-12-07T01:24:44;155631.69;;;3.74;100.00
3590;BME280;1809;48.470;9.226;2022-12-07T01:27:11;155625.22;;;3.71;100.00
3590;BME280;1809;48.470;9.226;2022-12-07T01:29:37;155629.13;;;3.73;100.00
3590;BME280;1809;48.470;9.226;2022-12-07T01:32:02;155592.72;;;3.59;100.00
3590;BME280;1809;48.470;9.226;2022-12-07T01:34:28;155590.16;;;3.58;100.00
3590;BME280;1809;48.470;9.226;2022-12-07T01:36:53;155616.09;;;3.68;100.00
3590;BME280;1809;48.470;9.226;2022-12-07T01:39:18;155605.75;;;3.64;100.00
3590;BME280;1809;48.470;9.226;2022-12-07T01:41:44;155613.53;;;3.67;100.00
3590;BME280;1809;48.470;9.226;2022-12-07T01:44:19;155618.72;;;3.69;100.00
3590;BME280;1809;48.470;9.226;2022-12-07T01:46:52;155610.91;;;3.66;100.00
3590;BME280;1809;48.470;9.226;2022-12-07T01:49:35;155597.94;;;3.61;100.00
3590;BME280;1809;48.470;9.226;2022-12-07T01:52:24;155549.88;;;3.42;100.00
3590;BME280;1809;48.470;9.226;2022-12-07T01:54:57;155545.94;;;3.41;100.00
3590;BME280;1809;48.470;9.226;2022-12-07T01:57:24;155547.25;;;3.41;100.00
3590;BME280;1809;48.470;9.226;2022-12-07T01:59:51;155538.16;;;3.38;100.00
3590;BME280;1809;48.470;9.226;2022-12-07T02:02:28;155549.88;;;3.42;100.00
3590;BME280;1809;48.470;9.226;2022-12-07T02:04:55;155551.13;;;3.43;100.00
3590;BME280;1809;48.470;9.226;2022-12-07T02:07:22;155545.94;;;3.41;100.00
3590;BME280;1809;48.470;9.226;2022-12-07T02:09:48;155565.47;;;3.48;100.00
3590;BME280;1809;48.470;9.226;2022-12-07T02:12:14;155557.66;;;3.45;100.00
3590;BME280;1809;48.470;9.226;2022-12-07T02:14:40;155579.75;;;3.54;100.00
3590;BME280;1809;48.470;9.226;2022-12-07T02:17:32;155577.13;;;3.53;100.00
3590;BME280;1809;48.470;9.226;2022-12-07T02:20:28;155623.91;;;3.71;100.00
3590;BME280;1809;48.470;9.226;2022-12-07T02:25:58;155629.13;;;3.73;100.00
3590;BME280;1809;48.470;9.226;2022-12-07T02:28:34;155623.91;;;3.71;100.00
3590;BME280;1809;48.470;9.226;2022-12-07T02:31:05;155616.09;;;3.68;100.00
3590;BME280;1809;48.470;9.226;2022-12-07T02:33:44;155586.22;;;3.56;100.00
3590;BME280;1809;48.470;9.226;2022-12-07T02:36:16;155587.53;;;3.57;100.00
3590;BME280;1809;48.470;9.226;2022-12-07T02:38:48;155577.13;;;3.53;100.00
3590;BME280;1809;48.470;9.226;2022-12-07T02:41:27;155566.72;;;3.49;100.00
3590;BME280;1809;48.470;9.226;2022-12-07T02:44:02;155564.16;;;3.48;100.00
3590;BME280;1809;48.470;9.226;2022-12-07T02:46:33;155577.13;;;3.53;100.00
3590;BME280;1809;48.470;9.226;2022-12-07T02:49:00;155587.53;;;3.57;100.00
3590;BME280;1809;48.470;9.226;2022-12-07T02:51:30;155558.91;;;3.46;100.00
3590;BME280;1809;48.470;9.226;2022-12-07T02:53:56;155569.34;;;3.50;100.00
3590;BME280;1809;48.470;9.226;2022-12-07T03:15:40;155607.00;;;3.64;100.00
3590;BME280;1809;48.470;9.226;2022-12-07T03:18:09;155621.34;;;3.70;100.00
3590;BME280;1809;48.470;9.226;2022-12-07T03:20:38;155588.84;;;3.57;100.00
3590;BME280;1809;48.470;9.226;2022-12-07T03:23:07;155587.53;;;3.57;100.00
3590;BME280;1809;48.470;9.226;2022-12-07T03:25:39;155574.56;;;3.52;100.00
3590;BME280;1809;48.470;9.226;2022-12-07T03:28:07;155566.72;;;3.49;100.00
3590;BME280;1809;48.470;9.226;2022-12-07T03:30:48;155557.66;;;3.45;100.00
3590;BME280;1809;48.470;9.226;2022-12-07T03:33:24;155557.66;;;3.45;100.00
3590;BME280;1809;48.470;9.226;2022-12-07T03:36:01;155535.53;;;3.37;100.00
3590;BME280;1809;48.470;9.226;2022-12-07T03:39:36;155536.84;;;3.37;100.00
3590;BME280;1809;48.470;9.226;2022-12-07T03:41:41;155535.53;;;3.37;100.00
3590;BME280;1809;48.470;9.226;2022-12-07T03:44:07;155535.53;;;3.37;100.00
3590;BME280;1809;48.470;9.226;2022-12-07T03:49:16;155535.53;;;3.37;100.00
3590;BME280;1809;48.470;9.226;2022-12-07T03:51:51;155535.53;;;3.37;100.00
3590;BME280;1809;48.470;9.226;2022-12-07T03:54:46;155522.56;;;3.32;100.00
3590;BME280;1809;48.470;9.226;2022-12-07T03:57:12;155510.84;;;3.27;100.00
3590;BME280;1809;48.470;9.226;2022-12-07T03:59:39;155492.69;;;3.20;100.00
3590;BME280;1809;48.470;9.226;2022-12-07T04:02:07;155465.41;;;3.09;100.00
3590;BME280;1809;48.470;9.226;2022-12-07T04:04:33;155496.56;;;3.21;100.00
3590;BME280;1809;48.470;9.226;2022-12-07T04:06:59;155513.47;;;3.28;100.00
3590;BME280;1809;48.470;9.226;2022-12-07T04:09:25;155497.88;;;3.22;100.00
3590;BME280;1809;48.470;9.226;2022-12-07T04:11:51;155478.41;;;3.14;100.00
3590;BME280;1809;48.470;9.226;2022-12-07T04:14:16;155504.38;;;3.24;100.00
3590;BME280;1809;48.470;9.226;2022-12-07T04:16:53;155465.41;;;3.09;100.00
3590;BME280;1809;48.470;9.226;2022-12-07T04:19:21;155487.47;;;3.18;100.00
3590;BME280;1809;48.470;9.226;2022-12-07T04:21:47;155468.00;;;3.10;100.00
3590;BME280;1809;48.470;9.226;2022-12-07T04:24:14;155457.59;;;3.06;100.00
3590;BME280;1809;48.470;9.226;2022-12-07T04:26:40;155452.44;;;3.04;100.00
3590;BME280;1809;48.470;9.226;2022-12-07T04:29:06;155432.91;;;2.97;100.00
3590;BME280;1809;48.470;9.226;2022-12-07T04:31:31;155436.84;;;2.98;100.00
3590;BME280;1809;48.470;9.226;2022-12-07T04:33:57;155429.06;;;2.95;100.00
3590;BME280;1809;48.470;9.226;2022-12-07T04:36:22;155431.63;;;2.96;100.00
3590;BME280;1809;48.470;9.226;2022-12-07T04:38:48;155431.63;;;2.96;100.00
3590;BME280;1809;48.470;9.226;2022-12-07T04:41:13;155443.31;;;3.01;100.00
3590;BME280;1809;48.470;9.226;2022-12-07T04:43:38;155466.69;;;3.10;100.00
3590;BME280;1809;48.470;9.226;2022-12-07T04:46:04;155431.63;;;2.96;100.00
3590;BME280;1809;48.470;9.226;2022-12-07T04:48:30;155439.41;;;2.99;100.00
3590;BME280;1809;48.470;9.226;2022-12-07T04:50:55;155439.41;;;2.99;100.00
3590;BME280;1809;48.470;9.226;2022-12-07T04:53:21;155425.13;;;2.94;100.00
3590;BME280;1809;48.470;9.226;2022-12-07T04:55:46;155416.03;;;2.90;100.00
3590;BME280;1809;48.470;9.226;2022-12-07T04:58:13;155403.06;;;2.85;100.00
3590;BME280;1809;48.470;9.226;2022-12-07T05:00:39;155396.56;;;2.83;100.00
3590;BME280;1809;48.470;9.226;2022-12-07T05:03:04;155383.56;;;2.78;100.00
3590;BME280;1809;48.470;9.226;2022-12-07T05:05:29;155377.06;;;2.75;100.00
3590;BME280;1809;48.470;9.226;2022-12-07T05:07:55;155381.00;;;2.77;100.00
3590;BME280;1809;48.470;9.226;2022-12-07T05:10:21;155395.28;;;2.82;100.00
3590;BME280;1809;48.470;9.226;2022-12-07T05:12:46;155383.56;;;2.78;100.00
3590;BME280;1809;48.470;9.226;2022-12-07T05:15:13;155362.81;;;2.69;100.00
3590;BME280;1809;48.470;9.226;2022-12-07T05:17:38;155348.53;;;2.64;100.00
3590;BME280;1809;48.470;9.226;2022-12-07T05:20:04;155332.94;;;2.58;100.00
3590;BME280;1809;48.470;9.226;2022-12-07T05:22:30;155306.97;;;2.48;100.00
3590;BME280;1809;48.470;9.226;2022-12-07T05:24:55;155288.78;;;2.41;100.00
3590;BME280;1809;48.470;9.226;2022-12-07T05:27:21;155278.38;;;2.37;100.00
3590;BME280;1809;48.470;9.226;2022-12-07T05:29:46;155265.41;;;2.32;100.00
3590;BME280;1809;48.470;9.226;2022-12-07T05:32:12;155261.56;;;2.30;100.00
3590;BME280;1809;48.470;9.226;2022-12-07T05:34:37;155257.63;;;2.29;100.00
3590;BME280;1809;48.470;9.226;2022-12-07T05:37:02;155262.81;;;2.31;100.00
3590;BME280;1809;48.470;9.226;2022-12-07T05:39:28;155264.13;;;2.31;100.00
3590;BME280;1809;48.470;9.226;2022-12-07T05:41:53;155260.25;;;2.30;100.00
3590;BME280;1809;48.470;9.226;2022-12-07T05:44:37;155249.84;;;2.26;100.00
3590;BME280;1809;48.470;9.226;2022-12-07T05:47:03;155222.56;;;2.15;100.00
3590;BME280;1809;48.470;9.226;2022-12-07T05:49:28;155200.53;;;2.06;100.00
3590;BME280;1809;48.470;9.226;2022-12-07T05:51:53;155179.78;;;1.98;100.00
3590;BME280;1809;48.470;9.226;2022-12-07T05:54:19;155138.22;;;1.82;100.00
3590;BME280;1809;48.470;9.226;2022-12-07T05:56:44;155104.50;;;1.69;100.00
3590;BME280;1809;48.470;9.226;2022-12-07T05:59:09;155096.72;;;1.66;100.00
3590;BME280;1809;48.470;9.226;2022-12-07T06:02:25;155078.53;;;1.59;100.00
3590;BME280;1809;48.470;9.226;2022-12-07T06:04:45;155046.09;;;1.46;100.00
3590;BME280;1809;48.470;9.226;2022-12-07T06:07:13;155031.84;;;1.41;100.00
3590;BME280;1809;48.470;9.226;2022-12-07T06:09:39;155039.63;;;1.44;100.00
3590;BME280;1809;48.470;9.226;2022-12-07T06:12:06;155029.28;;;1.40;100.00
3590;BME280;1809;48.470;9.226;2022-12-07T06:14:50;155013.72;;;1.34;100.00
3590;BME280;1809;48.470;9.226;2022-12-07T06:17:16;154989.06;;;1.24;100.00
3590;BME280;1809;48.470;9.226;2022-12-07T06:19:42;154974.75;;;1.19;100.00
3590;BME280;1809;48.470;9.226;2022-12-07T06:22:08;155003.31;;;1.30;100.00
3590;BME280;1809;48.470;9.226;2022-12-07T06:24:34;155029.28;;;1.40;100.00
3590;BME280;1809;48.470;9.226;2022-12-07T06:27:00;155024.06;;;1.38;100.00
3590;BME280;1809;48.470;9.226;2022-12-07T06:29:25;155011.09;;;1.33;100.00
3590;BME280;1809;48.470;9.226;2022-12-07T06:31:51;155018.88;;;1.36;100.00
3590;BME280;1809;48.470;9.226;2022-12-07T06:34:18;155002.03;;;1.29;100.00
3590;BME280;1809;48.470;9.226;2022-12-07T06:36:45;154968.28;;;1.16;100.00
3590;BME280;1809;48.470;9.226;2022-12-07T06:39:10;154941.09;;;1.05;100.00
3590;BME280;1809;48.470;9.226;2022-12-07T06:41:37;154900.88;;;0.90;100.00
3590;BME280;1809;48.470;9.226;2022-12-07T06:44:03;154865.88;;;0.76;100.00
3590;BME280;1809;48.470;9.226;2022-12-07T06:46:29;154876.25;;;0.80;100.00
3590;BME280;1809;48.470;9.226;2022-12-07T06:48:54;154891.81;;;0.86;100.00
3590;BME280;1809;48.470;9.226;2022-12-07T06:51:20;154894.38;;;0.87;100.00
3590;BME280;1809;48.470;9.226;2022-12-07T06:53:45;154865.88;;;0.76;100.00
3590;BME280;1809;48.470;9.226;2022-12-07T06:56:10;154850.31;;;0.70;100.00
3590;BME280;1809;48.470;9.226;2022-12-07T06:58:36;154846.41;;;0.69;100.00
3590;BME280;1809;48.470;9.226;2022-12-07T07:01:01;154874.94;;;0.80;100.00
3590;BME280;1809;48.470;9.226;2022-12-07T07:03:26;154877.56;;;0.81;100.00
3590;BME280;1809;48.470;9.226;2022-12-07T07:05:52;154889.19;;;0.85;100.00
3590;BME280;1809;48.470;9.226;2022-12-07T07:08:17;154904.75;;;0.91;100.00
3590;BME280;1809;48.470;9.226;2022-12-07T07:10:42;154909.97;;;0.93;100.00
3590;BME280;1809;48.470;9.226;2022-12-07T07:13:08;154908.66;;;0.93;100.00
3590;BME280;1809;48.470;9.226;2022-12-07T07:15:34;154917.75;;;0.96;100.00
3590;BME280;1809;48.470;9.226;2022-12-07T07:18:00;154933.31;;;1.02;100.00
3590;BME280;1809;48.470;9.226;2022-12-07T07:20:25;154951.44;;;1.09;100.00
3590;BME280;1809;48.470;9.226;2022-12-07T07:22:54;154992.94;;;1.26;100.00
3590;BME280;1809;48.470;9.226;2022-12-07T07:25:19;155003.31;;;1.30;100.00
3590;BME280;1809;48.470;9.226;2022-12-07T07:27:44;155013.72;;;1.34;100.00
3590;BME280;1809;48.470;9.226;2022-12-07T07:30:10;155027.97;;;1.39;100.00
3590;BME280;1809;48.470;9.226;2022-12-07T07:32:36;155031.84;;;1.41;100.00
3590;BME280;1809;48.470;9.226;2022-12-07T07:35:01;155031.84;;;1.41;100.00
3590;BME280;1809;48.470;9.226;2022-12-07T07:37:27;155042.22;;;1.45;100.00
3590;BME280;1809;48.470;9.226;2022-12-07T07:39:52;155056.50;;;1.50;100.00
3590;BME280;1809;48.470;9.226;2022-12-07T07:42:18;155059.09;;;1.51;100.00
3590;BME280;1809;48.470;9.226;2022-12-07T07:44:43;155081.16;;;1.60;100.00
3590;BME280;1809;48.470;9.226;2022-12-07T07:47:09;155094.09;;;1.65;100.00
3590;BME280;1809;48.470;9.226;2022-12-07T07:49:34;155107.09;;;1.70;100.00
3590;BME280;1809;48.470;9.226;2022-12-07T07:51:59;155122.66;;;1.76;100.00
3590;BME280;1809;48.470;9.226;2022-12-07T07:54:25;155146.03;;;1.85;100.00
3590;BME280;1809;48.470;9.226;2022-12-07T07:56:52;155173.28;;;1.96;100.00
3590;BME280;1809;48.470;9.226;2022-12-07T07:59:17;155221.31;;;2.14;100.00
3590;BME280;1809;48.470;9.226;2022-12-07T08:01:42;155204.44;;;2.08;100.00
3590;BME280;1809;48.470;9.226;2022-12-07T08:04:08;155239.44;;;2.22;100.00
3590;BME280;1809;48.470;9.226;2022-12-07T08:06:33;155234.28;;;2.20;100.00
3590;BME280;1809;48.470;9.226;2022-12-07T08:08:58;155236.88;;;2.21;100.00
3590;BME280;1809;48.470;9.226;2022-12-07T08:11:24;155252.47;;;2.27;100.00
3590;BME280;1809;48.470;9.226;2022-12-07T08:13:49;155281.00;;;2.38;100.00
3590;BME280;1809;48.470;9.226;2022-12-07T08:16:15;155299.19;;;2.45;100.00
3590;BME280;1809;48.470;9.226;2022-12-07T08:18:41;155286.16;;;2.40;100.00
3590;BME280;1809;48.470;9.226;2022-12-07T08:21:09;155317.38;;;2.52;100.00
3590;BME280;1809;48.470;9.226;2022-12-07T08:23:35;155322.47;;;2.55;100.00
3590;BME280;1809;48.470;9.226;2022-12-07T08:26:02;153633.59;;;2.66;100.00
3590;BME280;1809;48.470;9.226;2022-12-07T08:28:28;151566.16;;;2.63;100.00
3590;BME280;1809;48.470;9.226;2022-12-07T08:31:04;149833.09;;;2.56;100.00
3590;BME280;1809;48.470;9.226;2022-12-07T08:33:30;148816.75;;;2.61;100.00
3590;BME280;1809;48.470;9.226;2022-12-07T08:36:03;148138.41;;;2.64;100.00
3590;BME280;1809;48.470;9.226;2022-12-07T08:38:29;147809.09;;;2.69;100.00
3590;BME280;1809;48.470;9.226;2022-12-07T08:40:56;147154.13;;;2.82;100.00
3590;BME280;1809;48.470;9.226;2022-12-07T08:43:21;146524.66;;;3.05;100.00
3590;BME280;1809;48.470;9.226;2022-12-07T08:45:48;145170.09;;;3.12;100.00
3590;BME280;1809;48.470;9.226;2022-12-07T08:48:16;144163.31;;;3.21;100.00
3590;BME280;1809;48.470;9.226;2022-12-07T08:50:47;143167.28;;;3.35;100.00
3590;BME280;1809;48.470;9.226;2022-12-07T08:53:12;141833.03;;;3.51;100.00
3590;BME280;1809;48.470;9.226;2022-12-07T08:55:38;139793.47;;;3.58;100.00
3590;BME280;1809;48.470;9.226;2022-12-07T08:58:03;137370.97;;;3.47;100.00
3590;BME280;1809;48.470;9.226;2022-12-07T09:00:29;136355.63;;;3.52;100.00
3590;BME280;1809;48.470;9.226;2022-12-07T09:02:54;136389.66;;;3.67;100.00
3590;BME280;1809;48.470;9.226;2022-12-07T09:05:20;135766.06;;;3.94;100.00
3590;BME280;1809;48.470;9.226;2022-12-07T09:07:49;134052.22;;;3.93;100.00
3590;BME280;1809;48.470;9.226;2022-12-07T09:10:17;133385.59;;;4.01;100.00
3590;BME280;1809;48.470;9.226;2022-12-07T09:12:43;132707.84;;;4.04;100.00
3590;BME280;1809;48.470;9.226;2022-12-07T09:15:08;131666.19;;;3.97;100.00
3590;BME280;1809;48.470;9.226;2022-12-07T09:17:35;130347.09;;;4.20;100.00
3590;BME280;1809;48.470;9.226;2022-12-07T09:20:01;127957.97;;;4.22;100.00
3590;BME280;1809;48.470;9.226;2022-12-07T09:22:30;127627.81;;;4.27;100.00
3590;BME280;1809;48.470;9.226;2022-12-07T09:24:57;126258.81;;;4.26;100.00
3590;BME280;1809;48.470;9.226;2022-12-07T09:27:22;126647.75;;;4.49;100.00
3590;BME280;1809;48.470;9.226;2022-12-07T09:29:48;123941.97;;;4.63;100.00
3590;BME280;1809;48.470;9.226;2022-12-07T09:32:13;119886.34;;;4.84;100.00
3590;BME280;1809;48.470;9.226;2022-12-07T09:34:38;113050.69;;;4.76;100.00
3590;BME280;1809;48.470;9.226;2022-12-07T09:37:04;111380.97;;;4.94;100.00
3590;BME280;1809;48.470;9.226;2022-12-07T09:39:29;109691.97;;;5.02;100.00
3590;BME280;1809;48.470;9.226;2022-12-07T09:41:56;107322.78;;;5.09;100.00
3590;BME280;1809;48.470;9.226;2022-12-07T09:44:24;105972.41;;;5.15;100.00
3590;BME280;1809;48.470;9.226;2022-12-07T09:46:50;103243.47;;;5.10;100.00
3590;BME280;1809;48.470;9.226;2022-12-07T09:49:20;98819.47;;;5.05;100.00
3590;BME280;1809;48.470;9.226;2022-12-07T09:51:47;97466.81;;;5.08;100.00
3590;BME280;1809;48.470;9.226;2022-12-07T09:54:15;99512.34;;;5.14;100.00
3590;BME280;1809;48.470;9.226;2022-12-07T09:56:41;100884.16;;;5.22;100.00
3590;BME280;1809;48.470;9.226;2022-12-07T09:59:16;98821.94;;;5.07;100.00
3590;BME280;1809;48.470;9.226;2022-12-07T10:01:42;98835.78;;;5.15;100.00
3590;BME280;1809;48.470;9.226;2022-12-07T10:04:20;97489.34;;;5.22;100.00
3590;BME280;1809;48.470;9.226;2022-12-07T10:06:46;96824.16;;;5.31;100.00
3590;BME280;1809;48.470;9.226;2022-12-07T10:09:15;93437.41;;;5.34;100.00
3590;BME280;1809;48.470;9.226;2022-12-07T10:12:10;92770.03;;;5.41;100.00
3590;BME280;1809;48.470;9.226;2022-12-07T10:14:39;86009.22;;;5.51;100.00
3590;BME280;1809;48.470;9.226;2022-12-07T10:17:37;83977.16;;;5.50;100.00
3590;BME280;1809;48.470;9.226;2022-12-07T10:22:36;85696.84;;;5.70;100.00
3590;BME280;1809;48.470;9.226;2022-12-07T10:25:18;79305.09;;;5.96;100.00
3590;BME280;1809;48.470;9.226;2022-12-07T10:27:43;65796.78;;;5.83;100.00
3590;BME280;1809;48.470;9.226;2022-12-07T10:30:14;58418.25;;;6.03;100.00
3590;BME280;1809;48.470;9.226;2022-12-07T10:32:40;31976.91;;;6.01;100.00
3590;BME280;1809;48.470;9.226;2022-12-07T10:35:21;9385.97;;;6.08;100.00
3590;BME280;1809;48.470;9.226;2022-12-07T10:37:47;-4491.31;;;5.94;100.00
3590;BME280;1809;48.470;9.226;2022-12-07T10:40:34;-16040.69;;;5.96;100.00
3590;BME280;1809;48.470;9.226;2022-12-07T10:43:20;-16211.72;;;5.83;100.00
3590;BME280;1809;48.470;9.226;2022-12-07T10:46:10;-16325.34;;;5.61;100.00
3590;BME280;1809;48.470;9.226;2022-12-07T10:51:46;-16328.44;;;5.72;100.00
3590;BME280;1809;48.470;9.226;2022-12-07T10:54:23;-16077.19;;;5.79;100.00
3590;BME280;1809;48.470;9.226;2022-12-07T10:57:02;-12192.94;;;5.92;100.00
3590;BME280;1809;48.470;9.226;2022-12-07T11:05:46;-11077.81;;;5.93;100.00
3590;BME280;1809;48.470;9.226;2022-12-07T11:08:36;-11762.28;;;5.97;100.00
3590;BME280;1809;48.470;9.226;2022-12-07T11:11:13;-12450.50;;;5.95;100.00
3590;BME280;1809;48.470;9.226;2022-12-07T11:18:51;-12909.63;;;6.03;100.00
3590;BME280;1809;48.470;9.226;2022-12-07T11:21:39;-5482.75;;;6.19;100.00
3590;BME280;1809;48.470;9.226;2022-12-07T11:24:17;-4492.75;;;6.11;100.00
3590;BME280;1809;48.470;9.226;2022-12-07T11:29:40;-2184.75;;;6.33;100.00
3590;BME280;1809;48.470;9.226;2022-12-07T11:37:57;-203.13;;;6.12;100.00
3590;BME280;1809;48.470;9.226;2022-12-07T11:40:35;11040.59;;;5.99;100.00
3590;BME280;1809;48.470;9.226;2022-12-07T11:43:11;16011.41;;;5.91;100.00
3590;BME280;1809;48.470;9.226;2022-12-07T11:45:42;25983.84;;;6.06;100.00
3590;BME280;1809;48.470;9.226;2022-12-07T11:48:24;31656.25;;;6.26;100.00
3590;BME280;1809;48.470;9.226;2022-12-07T11:50:57;28667.81;;;6.52;100.00
3590;BME280;1809;48.470;9.226;2022-12-07T11:53:33;22005.56;;;6.43;100.00
3590;BME280;1809;48.470;9.226;2022-12-07T11:56:13;17355.47;;;6.55;100.00
3590;BME280;1809;48.470;9.226;2022-12-07T11:58:49;6412.44;;;6.67;100.00
3590;BME280;1809;48.470;9.226;2022-12-07T12:06:37;13368.59;;;6.40;100.00
3590;BME280;1809;48.470;9.226;2022-12-07T12:17:13;30320.22;;;6.21;100.00
3590;BME280;1809;48.470;9.226;2022-12-07T12:20:15;34333.03;;;6.41;100.00
3590;BME280;1809;48.470;9.226;2022-12-07T12:22:46;30339.13;;;6.61;100.00
3590;BME280;1809;48.470;9.226;2022-12-07T12:25:43;22674.94;;;6.55;100.00
3590;BME280;1809;48.470;9.226;2022-12-07T12:33:35;34006.06;;;6.54;100.00
3590;BME280;1809;48.470;9.226;2022-12-07T12:44:02;31337.59;;;6.56;100.00
3590;BME280;1809;48.470;9.226;2022-12-07T12:51:44;29340.09;;;6.64;100.00
3590;BME280;1809;48.470;9.226;2022-12-07T12:59:29;43038.41;;;6.63;100.00
3590;BME280;1809;48.470;9.226;2022-12-07T13:23:25;58093.63;;;6.15;100.00
3590;BME280;1809;48.470;9.226;2022-12-07T13:25:59;58088.91;;;6.10;100.00
3590;BME280;1809;48.470;9.226;2022-12-07T13:28:33;61111.28;;;6.07;100.00
3590;BME280;1809;48.470;9.226;2022-12-07T13:33:30;68519.97;;;6.09;100.00
3590;BME280;1809;48.470;9.226;2022-12-07T13:35:56;67505.69;;;6.06;100.00
3590;BME280;1809;48.470;9.226;2022-12-07T13:38:31;68517.69;;;6.07;100.00
3590;BME280;1809;48.470;9.226;2022-12-07T13:41:18;68513.25;;;6.03;100.00
3590;BME280;1809;48.470;9.226;2022-12-07T13:43:58;69878.06;;;6.18;100.00
3590;BME280;1809;48.470;9.226;2022-12-07T13:46:32;68867.13;;;6.18;100.00
3590;BME280;1809;48.470;9.226;2022-12-07T13:48:59;67161.13;;;5.99;100.00
3590;BME280;1809;48.470;9.226;2022-12-07T13:51:28;70188.31;;;5.94;100.00
3590;BME280;1809;48.470;9.226;2022-12-07T13:54:01;74552.78;;;5.77;100.00
3590;BME280;1809;48.470;9.226;2022-12-07T13:56:34;82984.44;;;5.66;100.00
3590;BME280;1809;48.470;9.226;2022-12-07T13:59:00;88073.00;;;5.74;100.00
3590;BME280;1809;48.470;9.226;2022-12-07T14:01:26;88087.50;;;5.84;100.00
3590;BME280;1809;48.470;9.226;2022-12-07T14:03:52;85032.50;;;5.79;100.00
3590;BME280;1809;48.470;9.226;2022-12-07T14:06:24;86046.00;;;5.77;100.00
3590;BME280;1809;48.470;9.226;2022-12-07T14:08:51;86397.38;;;5.86;100.00
3590;BME280;1809;48.470;9.226;2022-12-07T14:11:30;88416.13;;;5.77;100.00
3590;BME280;1809;48.470;9.226;2022-12-07T14:13:58;89424.63;;;5.71;100.00
3590;BME280;1809;48.470;9.226;2022-12-07T14:16:35;89770.19;;;5.76;100.00
3590;BME280;1809;48.470;9.226;2022-12-07T14:19:06;90115.06;;;5.80;100.00
3590;BME280;1809;48.470;9.226;2022-12-07T14:22:06;93808.16;;;5.55;100.00
3590;BME280;1809;48.470;9.226;2022-12-07T14:24:41;96545.25;;;5.69;100.00
3590;BME280;1809;48.470;9.226;2022-12-07T14:27:16;95525.13;;;5.68;100.00
3590;BME280;1809;48.470;9.226;2022-12-07T14:29:42;96177.16;;;5.51;100.00
3590;BME280;1809;48.470;9.226;2022-12-07T14:32:29;98563.75;;;5.57;100.00
3590;BME280;1809;48.470;9.226;2022-12-07T14:35:09;99586.25;;;5.59;100.00
3590;BME280;1809;48.470;9.226;2022-12-07T14:37:36;99218.63;;;5.42;100.00
3590;BME280;1809;48.470;9.226;2022-12-07T14:40:02;103627.81;;;5.36;100.00
3590;BME280;1809;48.470;9.226;2022-12-07T14:42:29;105333.84;;;5.39;100.00
3590;BME280;1809;48.470;9.226;2022-12-07T14:44:56;105351.25;;;5.50;100.00
3590;BME280;1809;48.470;9.226;2022-12-07T14:47:22;105326.91;;;5.35;100.00
3590;BME280;1809;48.470;9.226;2022-12-07T14:49:47;106012.69;;;5.38;100.00
3590;BME280;1809;48.470;9.226;2022-12-07T14:52:16;106026.69;;;5.47;100.00
3590;BME280;1809;48.470;9.226;2022-12-07T14:54:42;105302.53;;;5.21;100.00
3590;BME280;1809;48.470;9.226;2022-12-07T14:57:09;108349.16;;;5.12;100.00
3590;BME280;1809;48.470;9.226;2022-12-07T14:59:35;110393.09;;;5.13;100.00
3590;BME280;1809;48.470;9.226;2022-12-07T15:02:00;113463.63;;;5.15;100.00
3590;BME280;1809;48.470;9.226;2022-12-07T15:04:25;114502.59;;;5.23;100.00
3590;BME280;1809;48.470;9.226;2022-12-07T15:07:02;114491.25;;;5.17;100.00
3590;BME280;1809;48.470;9.226;2022-12-07T15:09:29;115849.88;;;5.14;100.00
3590;BME280;1809;48.470;9.226;2022-12-07T15:11:54;116524.53;;;5.10;100.00
3590;BME280;1809;48.470;9.226;2022-12-07T15:14:20;116532.22;;;5.14;100.00
3590;BME280;1809;48.470;9.226;2022-12-07T15:16:45;116857.00;;;5.06;100.00